createdAt,value
2023-11-17T00:03:05.261Z,25.50
2023-11-17T00:06:20.427Z,25.40
2023-11-17T00:09:35.110Z,25.40
2023-11-17T00:12:49.887Z,25.40
2023-11-17T00:16:03.855Z,25.50
2023-11-17T00:19:19.295Z,25.70
2023-11-17T00:22:35.585Z,25.80
2023-11-17T00:25:50.078Z,25.90
2023-11-17T00:29:05.641Z,26.10
2023-11-17T00:32:20.666Z,26.20
2023-11-17T00:35:35.550Z,26.30
2023-11-17T00:38:49.926Z,26.40
2023-11-17T00:42:05.227Z,26.50
2023-11-17T00:45:22.530Z,26.50
2023-11-17T00:48:38.046Z,26.60
2023-11-17T00:51:53.408Z,26.60
2023-11-17T00:55:09.949Z,26.70
2023-11-17T00:58:27.060Z,26.70
2023-11-17T01:01:43.413Z,26.50
2023-11-17T01:04:57.249Z,26.30
2023-11-17T01:08:13.993Z,26.30
2023-11-17T01:11:29.462Z,26.30
2023-11-17T01:14:44.225Z,26.20
2023-11-17T01:17:59.035Z,26.10
2023-11-17T01:21:12.418Z,26.00
2023-11-17T01:24:26.555Z,25.90
2023-11-17T01:30:54.996Z,25.90
2023-11-17T01:34:10.524Z,25.90
2023-11-17T01:37:24.774Z,25.80
2023-11-17T01:40:41.263Z,25.80
2023-11-17T01:43:57.184Z,25.70
2023-11-17T01:47:13.467Z,25.70
2023-11-17T01:50:28.126Z,25.60
2023-11-17T01:53:42.817Z,25.60
2023-11-17T01:56:59.752Z,25.50
2023-11-17T02:00:18.194Z,25.50
2023-11-17T02:03:33.909Z,25.50
2023-11-17T02:06:52.981Z,25.50
2023-11-17T02:10:13.057Z,25.40
2023-11-17T02:13:28.844Z,25.40
2023-11-17T02:16:42.822Z,25.40
2023-11-17T02:19:54.749Z,25.30
2023-11-17T02:23:10.081Z,25.30
2023-11-17T02:26:27.387Z,25.30
2023-11-17T02:29:45.002Z,25.30
2023-11-17T02:32:59.708Z,25.30
2023-11-17T02:36:16.121Z,25.30
2023-11-17T02:39:32.948Z,25.30
2023-11-17T02:42:47.756Z,25.30
2023-11-17T02:46:03.738Z,25.30
2023-11-17T02:49:24.908Z,25.30
2023-11-17T02:52:39.199Z,25.30
2023-11-17T02:55:53.035Z,25.30
2023-11-17T02:59:07.971Z,25.30
2023-11-17T03:02:22.980Z,25.30
2023-11-17T03:05:39.888Z,25.30
2023-11-17T03:08:55.216Z,25.30
2023-11-17T03:12:11.553Z,25.30
2023-11-17T03:15:25.155Z,25.20
2023-11-17T03:18:40.746Z,25.20
2023-11-17T03:21:55.803Z,25.20
2023-11-17T03:25:07.778Z,25.20
2023-11-17T03:28:22.950Z,25.20
2023-11-17T03:31:37.027Z,25.10
2023-11-17T03:34:51.621Z,25.10
2023-11-17T03:38:07.049Z,25.10
2023-11-17T03:41:20.470Z,25.10
2023-11-17T03:44:36.462Z,25.10
2023-11-17T03:47:51.457Z,25.10
2023-11-17T03:51:06.232Z,25.10
2023-11-17T03:54:23.039Z,25.00
2023-11-17T03:57:40.184Z,25.00
2023-11-17T04:00:52.792Z,25.00
2023-11-17T04:04:05.797Z,25.00
2023-11-17T04:07:18.740Z,25.00
2023-11-17T04:10:33.749Z,25.00
2023-11-17T04:13:48.330Z,25.00
2023-11-17T04:17:03.685Z,24.90
2023-11-17T04:20:22.708Z,24.90
2023-11-17T04:23:37.091Z,24.90
2023-11-17T04:26:50.158Z,24.90
2023-11-17T04:30:01.068Z,24.90
2023-11-17T04:33:15.641Z,24.90
2023-11-17T04:36:29.620Z,24.90
2023-11-17T04:39:43.285Z,24.90
2023-11-17T04:42:55.928Z,24.80
2023-11-17T04:46:09.855Z,24.80
2023-11-17T04:49:23.835Z,24.80
2023-11-17T04:52:37.856Z,24.80
2023-11-17T04:55:53.802Z,24.80
2023-11-17T04:59:08.181Z,24.80
2023-11-17T05:02:21.076Z,24.80
2023-11-17T05:05:33.907Z,24.80
2023-11-17T05:08:50.704Z,24.80
2023-11-17T05:12:06.723Z,24.80
2023-11-17T05:15:23.632Z,24.80
2023-11-17T05:18:39.269Z,24.80
2023-11-17T05:21:54.996Z,24.80
2023-11-17T05:25:10.149Z,24.80
2023-11-17T05:28:23.199Z,24.70
2023-11-17T05:31:34.658Z,24.70
2023-11-17T05:34:46.427Z,24.70
2023-11-17T05:38:00.102Z,24.70
2023-11-17T05:41:16.787Z,24.70
2023-11-17T05:44:30.947Z,24.70
2023-11-17T05:47:45.920Z,24.70
2023-11-17T05:51:01.346Z,24.70
2023-11-17T05:54:20.358Z,24.60
2023-11-17T05:57:31.708Z,24.60
2023-11-17T06:00:46.667Z,24.60
2023-11-17T06:03:58.084Z,24.50
2023-11-17T06:07:13.971Z,24.60
2023-11-17T06:10:30.222Z,24.60
2023-11-17T06:13:45.147Z,24.60
2023-11-17T06:17:00.996Z,24.60
2023-11-17T06:20:22.385Z,24.60
2023-11-17T06:23:36.414Z,24.50
2023-11-17T06:26:51.904Z,24.60
2023-11-17T06:30:10.110Z,24.50
2023-11-17T06:33:23.800Z,24.50
2023-11-17T06:36:38.840Z,24.50
2023-11-17T06:39:55.556Z,24.50
2023-11-17T06:43:11.348Z,24.50
2023-11-17T06:46:27.637Z,24.50
2023-11-17T06:49:41.861Z,24.50
2023-11-17T06:52:56.566Z,24.50
2023-11-17T06:56:16.089Z,24.40
2023-11-17T06:59:28.842Z,24.40
2023-11-17T07:02:43.980Z,24.40
2023-11-17T07:05:59.601Z,24.40
2023-11-17T07:09:14.402Z,24.40
2023-11-17T07:12:30.983Z,24.40
2023-11-17T07:15:46.568Z,24.40
2023-11-17T07:19:00.516Z,24.40
2023-11-17T07:22:14.726Z,24.40
2023-11-17T07:25:30.100Z,24.40
2023-11-17T07:28:45.656Z,24.40
2023-11-17T07:32:00.563Z,24.40
2023-11-17T07:35:15.915Z,24.40
2023-11-17T07:38:32.665Z,24.40
2023-11-17T07:41:49.496Z,24.30
2023-11-17T07:45:02.190Z,24.30
2023-11-17T07:48:16.049Z,24.30
2023-11-17T07:51:29.621Z,24.30
2023-11-17T07:54:45.116Z,24.30
2023-11-17T07:58:01.437Z,24.30
2023-11-17T08:01:16.495Z,24.30
2023-11-17T08:04:29.810Z,24.20
2023-11-17T08:07:44.186Z,24.30
2023-11-17T08:10:59.847Z,24.30
2023-11-17T08:14:16.432Z,24.20
2023-11-17T08:17:31.703Z,24.20
2023-11-17T08:20:44.245Z,24.20
2023-11-17T08:23:59.362Z,24.20
2023-11-17T08:27:13.918Z,24.20
2023-11-17T08:30:35.714Z,24.20
2023-11-17T08:33:44.383Z,24.20
2023-11-17T08:36:57.261Z,24.20
2023-11-17T08:40:14.947Z,24.20
2023-11-17T08:43:30.744Z,24.20
2023-11-17T08:46:45.923Z,24.20
2023-11-17T08:50:02.441Z,24.20
2023-11-17T08:53:16.914Z,24.10
2023-11-17T08:59:50.385Z,24.20
2023-11-17T09:03:03.801Z,24.10
2023-11-17T09:06:18.555Z,24.10
2023-11-17T09:09:34.324Z,24.10
2023-11-17T09:12:49.074Z,24.10
2023-11-17T09:16:01.720Z,24.10
2023-11-17T09:19:15.212Z,24.10
2023-11-17T09:22:28.458Z,24.00
2023-11-17T09:25:38.303Z,24.00
2023-11-17T09:28:55.208Z,24.00
2023-11-17T09:32:11.073Z,24.00
2023-11-17T09:35:25.513Z,24.00
2023-11-17T09:38:41.441Z,24.00
2023-11-17T09:41:56.255Z,23.90
2023-11-17T09:45:11.842Z,23.90
2023-11-17T09:48:24.957Z,23.90
2023-11-17T09:51:40.497Z,23.90
2023-11-17T09:54:55.694Z,23.90
2023-11-17T09:58:13.079Z,23.90
2023-11-17T10:01:27.600Z,23.90
2023-11-17T10:08:02.789Z,23.80
2023-11-17T10:11:17.779Z,23.80
2023-11-17T10:14:31.593Z,23.80
2023-11-17T10:17:43.585Z,23.80
2023-11-17T10:20:59.960Z,23.80
2023-11-17T10:24:14.420Z,23.90
2023-11-17T10:27:28.313Z,23.90
2023-11-17T10:30:44.265Z,23.80
2023-11-17T10:34:01.237Z,23.80
2023-11-17T10:37:15.450Z,23.80
2023-11-17T10:40:35.161Z,23.80
2023-11-17T10:44:00.586Z,23.80
2023-11-17T10:47:16.578Z,23.80
2023-11-17T10:50:31.197Z,23.80
2023-11-17T10:53:45.429Z,23.80
2023-11-17T10:56:59.674Z,23.70
2023-11-17T11:00:29.626Z,23.70
2023-11-17T11:03:45.644Z,23.70
2023-11-17T11:07:01.599Z,23.70
2023-11-17T11:10:23.191Z,23.70
2023-11-17T11:13:55.562Z,23.70
2023-11-17T11:17:10.471Z,23.70
2023-11-17T11:20:27.146Z,23.70
2023-11-17T11:23:41.113Z,23.70
2023-11-17T11:26:55.193Z,23.70
2023-11-17T11:30:12.575Z,23.70
2023-11-17T11:33:26.858Z,23.60
2023-11-17T11:36:44.018Z,23.70
2023-11-17T11:39:57.699Z,23.60
2023-11-17T11:43:12.801Z,23.60
2023-11-17T11:46:27.658Z,23.60
2023-11-17T11:49:40.130Z,23.70
2023-11-17T11:52:54.637Z,23.90
2023-11-17T11:56:15.813Z,24.10
2023-11-17T11:59:30.428Z,24.20
2023-11-17T12:02:44.242Z,24.30
2023-11-17T12:06:00.376Z,24.40
2023-11-17T12:09:18.963Z,24.50
2023-11-17T12:12:33.764Z,24.60
2023-11-17T12:15:48.935Z,24.70
2023-11-17T12:19:03.970Z,24.70
2023-11-17T12:25:33.961Z,24.90
2023-11-17T12:28:46.674Z,25.00
2023-11-17T12:32:03.203Z,25.10
2023-11-17T12:35:20.624Z,25.20
2023-11-17T12:38:34.776Z,25.20
2023-11-17T12:41:51.763Z,25.30
2023-11-17T12:45:06.891Z,25.30
2023-11-17T12:48:21.024Z,25.20
2023-11-17T12:51:37.745Z,25.10
2023-11-17T12:54:50.601Z,25.10
2023-11-17T12:58:04.700Z,24.90
2023-11-17T13:04:36.213Z,24.80
2023-11-17T13:07:51.939Z,24.90
2023-11-17T13:11:10.289Z,24.90
2023-11-17T13:14:29.965Z,25.00
2023-11-17T13:17:45.149Z,25.00
2023-11-17T13:20:58.559Z,25.00
2023-11-17T13:24:14.376Z,24.90
2023-11-17T13:27:27.770Z,24.90
2023-11-17T13:30:40.675Z,24.80
2023-11-17T13:33:53.986Z,24.80
2023-11-17T13:37:04.657Z,24.70
2023-11-17T13:40:19.398Z,24.70
2023-11-17T13:43:32.915Z,24.70
2023-11-17T13:46:47.743Z,24.70
2023-11-17T13:50:00.887Z,24.70
2023-11-17T13:53:12.425Z,24.70
2023-11-17T13:56:28.112Z,24.70
2023-11-17T13:59:42.150Z,24.70
2023-11-17T14:02:52.001Z,24.60
2023-11-17T14:06:05.632Z,24.70
2023-11-17T14:09:19.967Z,24.60
2023-11-17T14:12:36.426Z,24.70
2023-11-17T14:15:54.770Z,24.70
2023-11-17T14:19:02.308Z,24.70
2023-11-17T14:22:15.252Z,24.70
2023-11-17T14:25:27.793Z,24.70
2023-11-17T14:28:40.538Z,24.70
2023-11-17T14:31:53.678Z,24.60
2023-11-17T14:35:02.927Z,24.60
2023-11-17T14:38:18.891Z,24.60
2023-11-17T14:41:28.599Z,24.60
2023-11-17T14:44:39.790Z,24.70
2023-11-17T14:47:49.775Z,24.60
2023-11-17T14:51:00.614Z,24.60
2023-11-17T14:54:10.408Z,24.70
2023-11-17T14:57:21.930Z,24.60
2023-11-17T15:00:36.605Z,24.60
2023-11-17T15:03:47.008Z,24.60
2023-11-17T15:07:00.779Z,24.60
2023-11-17T15:10:14.745Z,24.60
2023-11-17T15:13:26.394Z,24.60
2023-11-17T15:16:41.971Z,24.60
2023-11-17T15:19:52.263Z,24.60
2023-11-17T15:23:04.394Z,24.60
2023-11-17T15:26:13.511Z,24.60
2023-11-17T15:29:27.051Z,24.60
2023-11-17T15:32:40.468Z,24.60
2023-11-17T15:35:51.144Z,24.50
2023-11-17T15:39:02.524Z,24.60
2023-11-17T15:42:17.168Z,24.60
2023-11-17T15:45:30.059Z,24.60
2023-11-17T15:48:43.796Z,24.50
2023-11-17T15:51:54.320Z,24.50
2023-11-17T15:55:03.956Z,24.50
2023-11-17T15:58:15.010Z,24.50
2023-11-17T16:01:27.188Z,24.60
2023-11-17T16:04:34.927Z,24.60
2023-11-17T16:07:46.458Z,24.60
2023-11-17T16:10:59.509Z,24.60
2023-11-17T16:14:09.252Z,24.60
2023-11-17T16:17:17.114Z,24.60
2023-11-17T16:20:31.419Z,24.60
2023-11-17T16:23:40.902Z,24.60
2023-11-17T16:26:51.957Z,24.60
2023-11-17T16:29:59.972Z,24.60
2023-11-17T16:33:11.430Z,24.50
2023-11-17T16:36:23.676Z,24.60
2023-11-17T16:39:34.408Z,24.60
2023-11-17T16:42:48.410Z,24.60
2023-11-17T16:46:00.002Z,24.60
2023-11-17T16:49:08.877Z,24.70
2023-11-17T16:52:18.203Z,24.60
2023-11-17T16:55:29.303Z,24.60
2023-11-17T16:58:43.033Z,24.60
2023-11-17T17:01:51.074Z,24.60
2023-11-17T17:05:00.843Z,24.60
2023-11-17T17:08:11.607Z,24.60
2023-11-17T17:11:23.132Z,24.60
2023-11-17T17:14:34.201Z,24.60
2023-11-17T17:17:44.194Z,24.70
2023-11-17T17:20:52.311Z,24.70
2023-11-17T17:24:04.235Z,24.70
2023-11-17T17:27:14.137Z,24.70
2023-11-17T17:30:27.722Z,24.70
2023-11-17T17:33:44.791Z,24.70
2023-11-17T17:36:57.546Z,24.70
2023-11-17T17:40:15.347Z,24.70
2023-11-17T17:43:29.022Z,24.70
2023-11-17T17:46:38.571Z,24.70
2023-11-17T17:49:50.612Z,24.70
2023-11-17T17:53:01.512Z,24.70
2023-11-17T17:56:13.358Z,24.70
2023-11-17T17:59:22.752Z,24.70
2023-11-17T18:02:31.148Z,24.70
2023-11-17T18:05:43.312Z,24.70
2023-11-17T18:08:57.844Z,24.70
2023-11-17T18:12:10.669Z,24.70
2023-11-17T18:15:27.202Z,24.70
2023-11-17T18:18:43.836Z,24.70
2023-11-17T18:21:52.164Z,24.60
2023-11-17T18:25:02.192Z,24.70
2023-11-17T18:28:11.488Z,24.70
2023-11-17T18:31:21.035Z,24.70
2023-11-17T18:34:30.509Z,24.70
2023-11-17T18:37:43.895Z,24.60
2023-11-17T18:40:56.044Z,24.60
2023-11-17T18:44:04.690Z,24.60
2023-11-17T18:47:15.498Z,24.60
2023-11-17T18:50:25.869Z,24.60
2023-11-17T18:53:37.351Z,24.60
2023-11-17T18:56:50.034Z,24.60
2023-11-17T19:00:01.010Z,24.60
2023-11-17T19:03:10.585Z,24.60
2023-11-17T19:06:20.380Z,24.60
2023-11-17T19:09:36.232Z,24.60
2023-11-17T19:12:51.147Z,24.50
2023-11-17T19:16:05.038Z,24.50
2023-11-17T19:19:16.539Z,24.50
2023-11-17T19:22:28.233Z,24.40
2023-11-17T19:25:41.406Z,24.50
2023-11-17T19:28:49.725Z,24.50
2023-11-17T19:31:58.794Z,24.50
2023-11-17T19:35:08.976Z,24.50
2023-11-17T19:38:22.134Z,24.50
2023-11-17T19:41:31.337Z,24.50
2023-11-17T19:44:50.425Z,24.50
2023-11-17T19:47:55.537Z,24.50
2023-11-17T19:51:09.559Z,24.40
2023-11-17T19:54:22.416Z,24.50
2023-11-17T19:57:30.612Z,24.40
2023-11-17T20:00:42.052Z,24.50
2023-11-17T20:03:54.427Z,24.50
2023-11-17T20:07:05.585Z,24.50
2023-11-17T20:10:21.226Z,24.50
2023-11-17T20:13:31.395Z,24.40
2023-11-17T20:16:39.416Z,24.50
2023-11-17T20:19:47.401Z,24.40
2023-11-17T20:22:57.439Z,24.40
2023-11-17T20:26:08.258Z,24.40
2023-11-17T20:29:18.487Z,24.40
2023-11-17T20:32:30.611Z,24.40
2023-11-17T20:35:42.540Z,24.50
2023-11-17T20:38:51.603Z,24.60
2023-11-17T20:42:01.947Z,24.80
2023-11-17T20:45:18.474Z,24.90
2023-11-17T20:48:28.362Z,25.00
2023-11-17T20:51:36.570Z,25.10
2023-11-17T20:54:46.133Z,25.10
2023-11-17T20:57:56.942Z,25.20
2023-11-17T21:01:08.847Z,25.30
2023-11-17T21:04:20.336Z,25.30
2023-11-17T21:07:31.829Z,25.40
2023-11-17T21:10:46.029Z,25.30
2023-11-17T21:14:01.336Z,25.30
2023-11-17T21:17:15.163Z,25.30
2023-11-17T21:20:23.263Z,25.20
2023-11-17T21:23:32.507Z,25.10
2023-11-17T21:26:40.258Z,25.00
2023-11-17T21:29:51.330Z,24.90
2023-11-17T21:33:06.092Z,24.90
2023-11-17T21:36:17.554Z,24.80
2023-11-17T21:39:30.582Z,24.80
2023-11-17T21:42:43.979Z,24.70
2023-11-17T21:45:53.059Z,24.70
2023-11-17T21:49:03.338Z,24.70
2023-11-17T21:52:14.559Z,24.70
2023-11-17T21:55:25.056Z,24.70
2023-11-17T21:58:40.282Z,24.70
2023-11-17T22:01:50.148Z,24.70
2023-11-17T22:05:02.738Z,24.70
2023-11-17T22:08:14.841Z,24.70
2023-11-17T22:11:24.673Z,24.70
2023-11-17T22:14:37.109Z,24.70
2023-11-17T22:17:46.656Z,24.70
2023-11-17T22:20:55.205Z,24.70
2023-11-17T22:24:05.445Z,24.70
2023-11-17T22:27:15.484Z,24.70
2023-11-17T22:30:26.651Z,24.80
2023-11-17T22:33:37.383Z,24.80
2023-11-17T22:36:49.046Z,24.80
2023-11-17T22:39:58.710Z,24.80
2023-11-17T22:43:06.857Z,24.90
2023-11-17T22:46:21.927Z,24.90
2023-11-17T22:49:30.068Z,25.10
2023-11-17T22:52:37.924Z,25.30
2023-11-17T22:55:45.833Z,25.50
2023-11-17T22:58:55.314Z,25.60
2023-11-17T23:02:09.637Z,25.70
2023-11-17T23:05:23.008Z,25.90
2023-11-17T23:08:33.434Z,26.00
2023-11-17T23:11:43.391Z,26.10
2023-11-17T23:14:54.966Z,26.20
2023-11-17T23:18:04.514Z,26.20
2023-11-17T23:21:16.455Z,26.30
2023-11-17T23:24:28.102Z,26.40
2023-11-17T23:27:37.599Z,26.40
2023-11-17T23:30:46.797Z,26.50
2023-11-17T23:33:57.162Z,26.40
2023-11-17T23:37:09.666Z,26.30
2023-11-17T23:40:23.607Z,26.20
2023-11-17T23:43:36.150Z,26.10
2023-11-17T23:46:45.572Z,26.00
2023-11-17T23:49:53.213Z,26.00
2023-11-17T23:53:02.390Z,25.90
2023-11-17T23:56:14.958Z,25.90
